Latest Weather Observations for Wyndham Airport

IDW60801

Issued at 9:32 pm WST Friday 3 July 2015 (issued every 30 minutes, with the page automatically refreshed every 10 minutes)

About weather observations | Map of weather stations | Latest weather observations for WA | Other Formats
Station Details ID: 001006 Name: WYNDHAM AERO Lat: -15.51 Lon: 128.15 Height: 3.8 m
Data from the previous 72 hours. | See also: Recent months for locations in Western Australia
Date/Time
WST
Temp
°C
App
Temp
°C
Dew
Point
Rel
Hum
%
Delta-T
°C
Wind Press
QNH
hPa
Press
MSL
hPa
Rain
since 9 am
mm
Dir
 
Spd
km/h
Gust
km/h
Spd
kts
Gust
kts
03/09:30pm 21.5 20.2 7.7 41 7.1 N 4 7 2 4 1015.6 1015.6 0.0
03/09:00pm 22.6 20.9 7.6 38 7.8 NNW 6 7 3 4 1015.5 1015.5 0.0
03/08:30pm 22.7 21.2 6.9 36 8.1 W 4 6 2 3 1015.4 1015.4 0.0
03/08:00pm 23.8 21.8 7.0 34 8.7 E 7 9 4 5 1015.3 1015.3 0.0
03/07:30pm 25.5 23.1 7.1 31 9.7 ESE 9 20 5 11 1015.1 1015.1 0.0
03/07:00pm 27.4 23.3 7.8 29 10.5 SSE 19 26 10 14 1014.8 1014.8 0.0
03/06:30pm 27.9 23.3 8.2 29 10.7 SSE 22 30 12 16 1014.4 1014.4 0.0
03/06:00pm 27.8 23.6 8.1 29 10.7 SE 20 28 11 15 1014.0 1014.0 0.0
03/05:30pm 28.3 23.8 8.6 29 10.8 SE 22 28 12 15 1013.7 1013.7 0.0
03/05:00pm 29.0 24.9 8.7 28 11.2 SE 20 26 11 14 1013.6 1013.6 0.0
03/04:30pm 30.0 26.8 8.4 26 11.9 SE 15 20 8 11 1013.4 1013.4 0.0
03/04:00pm 30.8 27.2 8.5 25 12.3 SE 17 24 9 13 1013.2 1013.2 0.0
03/03:30pm 31.2 27.2 8.2 24 12.7 SE 19 26 10 14 1013.2 1013.2 0.0
03/03:00pm 31.4 27.8 8.4 24 12.8 SE 17 24 9 13 1013.2 1013.2 0.0
03/02:30pm 31.4 28.2 8.4 24 12.8 SE 15 24 8 13 1013.4 1013.4 0.0
03/02:00pm 31.7 28.2 8.7 24 12.8 SE 17 28 9 15 1013.7 1013.7 0.0
03/01:30pm 31.3 27.3 8.3 24 12.7 SE 19 30 10 16 1014.2 1014.2 0.0
03/01:00pm 30.8 27.5 7.9 24 12.5 ESE 15 24 8 13 1014.7 1014.7 0.0
03/12:30pm 30.2 26.1 8.0 25 12.2 E 19 26 10 14 1015.2 1015.2 0.0
03/12:00pm 30.0 25.3 7.8 25 12.1 E 22 33 12 18 1015.7 1015.7 0.0
03/11:30am 29.5 24.5 8.0 26 11.7 ESE 24 33 13 18 1016.2 1016.2 0.0
03/11:00am 29.7 24.3 8.2 26 11.8 ESE 26 39 14 21 1016.7 1016.7 0.0
03/10:30am 29.1 23.4 8.2 27 11.4 ESE 28 41 15 22 1017.2 1017.2 0.0
03/10:00am 29.0 23.2 8.1 27 11.4 E 28 37 15 20 1017.6 1017.6 0.0
03/09:30am 28.7 22.6 8.4 28 11.1 E 30 41 16 22 1018.0 1018.0 0.0
03/09:00am 27.4 20.8 7.8 29 10.5 E 32 41 17 22 1018.3 1018.3 0.0
03/08:30am 27.2 20.7 8.1 30 10.3 E 32 43 17 23 1018.2 1018.2 0.0
03/08:00am 26.5 20.7 8.0 31 9.9 ESE 28 35 15 19 1018.2 1018.2 0.0
03/07:59am 26.5 20.7 8.0 31 9.9 ESE 28 35 15 19 1018.2 1018.2 0.0
03/07:30am 24.5 22.5 8.5 36 8.5 SE 9 13 5 7 1018.1 1018.1 0.0
03/07:00am 22.4 20.8 8.9 42 7.2 SSE 7 7 4 4 1017.9 1017.9 0.0
03/06:30am 22.0 22.0 9.9 46 6.5 CALM 0 0 0 0 1017.6 1017.6 0.0
03/06:00am 20.4 20.3 9.6 50 5.8 CALM 0 0 0 0 1017.3 1017.3 0.0
03/05:30am 20.0 19.5 9.3 50 5.7 SE 2 9 1 5 1017.0 1017.0 0.0
03/05:00am 19.0 18.7 8.6 51 5.4 CALM 0 0 0 0 1016.8 1016.8 0.0
03/04:30am 19.6 19.4 8.9 50 5.6 CALM 0 0 0 0 1016.5 1016.5 0.0
03/04:00am 20.0 19.8 9.0 49 5.8 CALM 0 0 0 0 1016.3 1016.3 0.0
03/03:30am 20.6 19.1 8.3 45 6.4 ESE 6 9 3 5 1016.1 1016.1 0.0
03/03:00am 21.2 19.2 8.5 44 6.7 ESE 9 9 5 5 1016.1 1016.1 0.0
03/02:30am 21.7 20.3 8.9 44 6.8 ESE 6 9 3 5 1016.1 1016.1 0.0
03/02:00am 21.5 21.0 9.4 46 6.5 ESE 2 7 1 4 1016.1 1016.1 0.0
03/01:30am 20.7 19.8 9.3 48 6.1 ENE 4 6 2 3 1016.3 1016.3 0.0
03/01:00am 19.9 19.8 9.5 51 5.5 CALM 0 0 0 0 1016.5 1016.5 0.0
03/12:30am 19.7 19.0 8.4 48 5.9 E 2 6 1 3 1016.7 1016.7 0.0
03/12:00am 21.2 19.5 8.5 44 6.7 E 7 7 4 4 1016.9 1016.9 0.0
 
Date/Time
WST
Temp
°C
App
Temp
°C
Dew
Point
Rel
Hum
%
Delta-T
°C
Wind Press
QNH
hPa
Press
MSL
hPa
Rain
since 9 am
mm
Dir
 
Spd
km/h
Gust
km/h
Spd
kts
Gust
kts
02/11:30pm 21.9 21.0 10.7 49 6.1 ENE 6 7 3 4 1016.9 1016.9 0.0
02/11:00pm 20.4 20.3 9.3 49 5.9 CALM 0 0 0 0 1016.9 1016.9 0.0
02/10:30pm 21.1 21.0 9.4 47 6.2 CALM 0 0 0 0 1017.1 1017.1 0.0
02/10:00pm 22.4 22.3 9.6 44 6.9 CALM 0 0 0 0 1017.2 1017.2 0.0
02/09:30pm 22.7 22.4 8.8 41 7.4 CALM 0 6 0 3 1017.3 1017.3 0.0
02/09:00pm 24.2 22.6 10.1 41 7.7 E 9 9 5 5 1017.3 1017.3 0.0
02/08:30pm 24.3 22.2 9.8 40 7.9 E 11 11 6 6 1017.2 1017.2 0.0
02/08:00pm 24.9 22.9 10.0 39 8.2 E 11 11 6 6 1016.8 1016.8 0.0
02/07:30pm 25.4 23.8 10.1 38 8.5 E 9 13 5 7 1016.6 1016.6 0.0
02/07:00pm 25.5 23.9 10.1 38 8.5 E 9 11 5 6 1016.3 1016.3 0.0
02/06:30pm 25.5 23.4 9.7 37 8.7 ESE 11 15 6 8 1015.8 1015.8 0.0
02/06:00pm 25.9 23.4 9.7 36 8.9 SE 13 15 7 8 1015.4 1015.4 0.0
02/05:30pm 28.1 25.4 10.3 33 10.0 ESE 15 17 8 9 1014.9 1014.9 0.0
02/05:00pm 29.6 26.2 10.7 31 10.8 ESE 19 24 10 13 1014.5 1014.5 0.0
02/04:30pm 30.6 26.6 10.5 29 11.5 ESE 22 30 12 16 1014.3 1014.3 0.0
02/04:00pm 31.3 27.9 10.6 28 11.9 SE 19 28 10 15 1014.2 1014.2 0.0
02/03:30pm 31.4 27.8 10.7 28 11.9 ESE 20 28 11 15 1014.1 1014.1 0.0
02/03:00pm 31.6 27.3 10.9 28 12.0 ESE 24 35 13 19 1014.2 1014.2 0.0
02/02:30pm 31.6 27.7 10.9 28 12.0 ESE 22 33 12 18 1014.3 1014.3 0.0
02/02:00pm 32.1 28.3 11.3 28 12.1 E 22 32 12 17 1014.6 1014.6 0.0
02/01:30pm 31.7 28.4 11.0 28 12.0 ESE 19 33 10 18 1015.1 1015.1 0.0
02/01:00pm 32.0 27.8 11.2 28 12.1 ESE 24 39 13 21 1015.5 1015.5 0.0
02/12:30pm 30.6 26.8 11.1 30 11.2 E 22 32 12 17 1016.1 1016.1 0.0
02/12:00pm 30.6 26.8 11.1 30 11.2 E 22 28 12 15 1016.8 1016.8 0.0
02/11:30am 32.2 27.3 11.4 28 12.1 ESE 28 37 15 20 1017.3 1017.3 0.0
02/11:00am 31.1 26.5 11.0 29 11.6 E 26 39 14 21 1017.8 1017.8 0.0
02/10:30am 30.0 24.1 10.5 30 11.1 ESE 32 39 17 21 1018.3 1018.3 0.0
02/10:00am 29.6 23.6 10.7 31 10.8 E 33 43 18 23 1018.7 1018.7 0.0
02/09:30am 29.3 22.7 9.9 30 10.9 E 35 48 19 26 1018.9 1018.9 0.0
02/09:00am 27.9 21.7 10.1 33 10.0 ESE 33 44 18 24 1019.1 1019.1 0.0
02/08:30am 28.0 22.2 10.7 34 9.8 ESE 32 41 17 22 1019.2 1019.2 0.0
02/08:00am 28.0 22.9 10.7 34 9.8 ESE 28 43 15 23 1019.2 1019.2 0.0
02/07:30am 25.5 23.0 10.9 40 8.2 ESE 15 19 8 10 1019.1 1019.1 0.0
02/07:00am 22.1 21.2 11.5 51 5.9 E 7 9 4 5 1019.0 1019.0 0.0
02/06:30am 19.9 18.2 10.0 53 5.3 E 9 13 5 7 1018.8 1018.8 0.0
02/06:00am 20.8 18.6 10.9 53 5.4 E 13 15 7 8 1018.6 1018.6 0.0
02/05:30am 20.6 18.8 11.0 54 5.3 E 11 13 6 7 1018.3 1018.3 0.0
02/05:00am 20.4 18.7 9.9 51 5.6 E 9 11 5 6 1018.2 1018.2 0.0
02/04:30am 21.2 19.7 10.7 51 5.7 ENE 9 11 5 6 1017.9 1017.9 0.0
02/04:00am 21.8 20.7 10.6 49 6.1 E 7 9 4 5 1017.8 1017.8 0.0
02/03:30am 22.4 21.4 10.9 48 6.4 E 7 9 4 5 1017.6 1017.6 0.0
02/03:00am 22.2 21.1 10.7 48 6.3 ENE 7 9 4 5 1017.5 1017.5 0.0
02/02:30am 22.2 20.9 10.0 46 6.6 NE 7 9 4 5 1017.4 1017.4 0.0
02/02:00am 22.5 21.2 10.0 45 6.8 E 7 9 4 5 1017.6 1017.6 0.0
02/01:30am 22.9 21.2 10.0 44 7.0 ENE 9 9 5 5 1017.8 1017.8 0.0
02/01:00am 23.2 21.5 9.9 43 7.2 E 9 11 5 6 1017.8 1017.8 0.0
02/12:30am 22.5 20.7 9.3 43 7.1 ENE 9 11 5 6 1017.9 1017.9 0.0
02/12:00am 22.7 21.0 9.8 44 7.0 E 9 11 5 6 1017.9 1017.9 0.0
 
Date/Time
WST
Temp
°C
App
Temp
°C
Dew
Point
Rel
Hum
%
Delta-T
°C
Wind Press
QNH
hPa
Press
MSL
hPa
Rain
since 9 am
mm
Dir
 
Spd
km/h
Gust
km/h
Spd
kts
Gust
kts
01/11:30pm 20.4 18.9 8.4 46 6.3 NNW 6 7 3 4 1017.7 1017.7 0.0
01/11:00pm 23.1 21.3 9.5 42 7.3 ENE 9 9 5 5 1017.8 1017.8 0.0
01/10:30pm 23.1 21.3 9.5 42 7.4 E 9 11 5 6 1017.9 1017.9 0.0
01/10:00pm 23.3 21.2 9.7 42 7.4 ENE 11 13 6 7 1017.9 1017.9 0.0
01/09:30pm 23.4 21.2 9.4 41 7.6 E 11 13 6 7 1017.9 1017.9 0.0
01/09:00pm 23.5 21.2 9.1 40 7.7 ENE 11 13 6 7 1017.8 1017.8 0.0
01/08:30pm 24.1 21.3 8.5 37 8.3 E 13 15 7 8 1017.7 1017.7 0.0
01/08:00pm 24.7 22.3 8.6 36 8.6 ESE 11 15 6 8 1017.6 1017.6 0.0
01/07:30pm 24.8 22.0 8.7 36 8.7 ESE 13 15 7 8 1017.3 1017.3 0.0
01/07:00pm 24.0 21.0 7.6 35 8.6 ESE 13 17 7 9 1016.8 1016.8 0.0
01/06:30pm 24.6 21.5 7.3 33 9.1 SE 13 17 7 9 1016.4 1016.4 0.0
01/06:00pm 25.7 22.6 7.3 31 9.7 ESE 13 17 7 9 1015.9 1015.9 0.0
01/05:30pm 27.6 25.1 8.0 29 10.6 E 11 13 6 7 1015.7 1015.7 0.0
01/05:00pm 29.6 26.1 8.6 27 11.6 E 17 22 9 12 1015.4 1015.4 0.0
01/04:30pm 30.8 26.7 8.5 25 12.3 ESE 20 28 11 15 1015.2 1015.2 0.0
01/04:00pm 31.5 27.6 8.5 24 12.8 E 19 26 10 14 1015.0 1015.0 0.0
01/03:30pm 31.1 27.1 8.2 24 12.6 SE 19 26 10 14 1015.0 1015.0 0.0
01/03:00pm 32.3 29.7 9.2 24 13.0 E 13 26 7 14 1014.9 1014.9 0.0
01/02:30pm 32.5 28.0 8.7 23 13.3 ESE 22 32 12 17 1015.1 1015.1 0.0
01/02:00pm 31.9 28.8 8.8 24 12.9 ESE 15 24 8 13 1015.2 1015.2 0.0
01/01:30pm 32.2 28.2 9.1 24 13.0 ESE 20 32 11 17 1015.5 1015.5 0.0
01/01:00pm 32.1 28.2 9.6 25 12.7 E 20 30 11 16 1016.0 1016.0 0.0
01/12:30pm 32.2 28.2 10.3 26 12.6 E 22 33 12 18 1016.5 1016.5 0.0
01/12:00pm 31.5 26.5 9.7 26 12.3 E 26 39 14 21 1017.1 1017.1 0.0
01/11:30am 31.6 26.8 10.3 27 12.2 E 26 35 14 19 1017.7 1017.7 0.0
01/11:00am 31.2 25.9 10.0 27 12.0 E 28 41 15 22 1018.2 1018.2 0.0
01/10:30am 30.6 25.3 10.0 28 11.7 ESE 28 35 15 19 1018.8 1018.8 0.0
01/10:00am 29.4 23.6 9.5 29 11.1 E 30 39 16 21 1019.4 1019.4 0.0
01/09:30am 29.0 23.5 9.2 29 11.0 E 28 37 15 20 1019.7 1019.7 0.0
01/09:00am 28.2 22.3 9.0 30 10.6 ESE 30 35 16 19 1019.9 1019.9 0.0
01/08:30am 27.7 21.2 9.0 31 10.3 ESE 33 44 18 24 1020.0 1020.0 0.0
01/08:22am 27.5 21.2 8.9 31 10.2 ESE 32 44 17 24 1019.9 1019.9 0.0
01/08:00am 26.8 22.6 8.3 31 10.0 ESE 20 26 11 14 1019.9 1019.9 0.0
01/07:30am 25.3 22.1 7.0 31 9.6 E 13 19 7 10 1019.7 1019.7 0.0
01/07:00am 22.8 19.5 6.6 35 8.3 E 13 15 7 8 1019.4 1019.4 0.0
01/06:30am 20.9 17.9 6.1 38 7.4 E 11 13 6 7 1019.0 1019.0 0.0
01/06:00am 16.2 13.6 4.3 45 5.5 ENE 7 11 4 6 1018.8 1018.8 0.0
01/05:30am 16.3 14.4 5.0 47 5.4 SE 4 6 2 3 1018.5 1018.5 0.0
01/05:00am 16.7 14.4 4.7 45 5.7 E 6 9 3 5 1018.3 1018.3 0.0
01/04:30am 15.7 12.9 5.0 49 5.1 E 9 9 5 5 1018.2 1018.2 0.0
01/04:00am 15.3 12.4 4.4 48 5.1 E 9 9 5 5 1018.2 1018.2 0.0
01/03:30am 15.2 13.2 4.6 49 4.9 NE 4 7 2 4 1018.1 1018.1 0.0
01/03:00am 17.1 15.2 4.8 44 5.8 WNW 4 6 2 3 1017.8 1017.8 0.0
01/02:30am 19.0 16.7 5.5 41 6.6 NNW 7 9 4 5 1017.6 1017.6 0.0
01/02:00am 18.0 15.6 5.2 43 6.2 NW 7 9 4 5 1017.6 1017.6 0.0
01/01:30am 16.6 14.3 5.6 48 5.3 WNW 7 9 4 5 1017.7 1017.7 0.0
01/01:00am 16.6 14.1 4.9 46 5.5 W 7 11 4 6 1017.9 1017.9 0.0
01/12:30am 16.7 15.0 4.1 43 5.9 NW 2 9 1 5 1017.9 1017.9 0.0
01/12:00am 18.0 16.7 4.2 40 6.5 CALM 0 0 0 0 1018.0 1018.0 0.0
 
Date/Time
WST
Temp
°C
App
Temp
°C
Dew
Point
Rel
Hum
%
Delta-T
°C
Wind Press
QNH
hPa
Press
MSL
hPa
Rain
since 9 am
mm
Dir
 
Spd
km/h
Gust
km/h
Spd
kts
Gust
kts
30/11:30pm 18.9 17.3 4.7 39 6.8 S 2 6 1 3 1017.9 1017.9 0.0
30/11:00pm 18.7 15.8 4.5 39 6.8 SSW 9 11 5 6 1017.8 1017.8 0.0
30/10:30pm 17.8 14.9 2.5 36 7.0 NNE 7 11 4 6 1017.7 1017.7 0.0
30/10:00pm 18.8 16.3 3.8 37 7.1 ENE 6 7 3 4 1017.9 1017.9 0.0

Other Formats:

Comma delimited format used in spreadsheet applications
http://www.bom.gov.au/fwo/IDW60801/IDW60801.95214.axf

JavaScript Object Notation format (JSON) in row-major order
http://www.bom.gov.au/fwo/IDW60801/IDW60801.95214.json